sensor_id;sensor_type;location;lat;lon;timestamp;pressure;altitude;pressure_sealevel;temperature;humidity
40872;BME280;26591;43.264;26.940;2023-08-20T00:00:52;99110.59;;;26.12;51.09
40872;BME280;26591;43.264;26.940;2023-08-20T00:03:17;99111.09;;;26.09;50.40
40872;BME280;26591;43.264;26.940;2023-08-20T00:05:43;99106.47;;;25.99;50.99
40872;BME280;26591;43.264;26.940;2023-08-20T00:08:09;99111.09;;;26.09;50.69
40872;BME280;26591;43.264;26.940;2023-08-20T00:10:34;99104.91;;;26.13;50.79
40872;BME280;26591;43.264;26.940;2023-08-20T00:13:00;99109.25;;;26.19;50.88
40872;BME280;26591;43.264;26.940;2023-08-20T00:15:25;99105.72;;;26.14;50.97
40872;BME280;26591;43.264;26.940;2023-08-20T00:17:55;99105.59;;;25.83;51.12
40872;BME280;26591;43.264;26.940;2023-08-20T00:20:21;99107.25;;;25.84;51.35
40872;BME280;26591;43.264;26.940;2023-08-20T00:22:47;99111.00;;;25.72;51.90
40872;BME280;26591;43.264;26.940;2023-08-20T00:25:14;99107.41;;;25.62;51.61
40872;BME280;26591;43.264;26.940;2023-08-20T00:27:41;99104.56;;;25.41;52.25
40872;BME280;26591;43.264;26.940;2023-08-20T00:30:07;99107.06;;;25.48;52.66
40872;BME280;26591;43.264;26.940;2023-08-20T00:32:34;99112.75;;;25.46;52.12
40872;BME280;26591;43.264;26.940;2023-08-20T00:34:59;99110.41;;;25.22;53.64
40872;BME280;26591;43.264;26.940;2023-08-20T00:37:25;99110.34;;;25.07;53.80
40872;BME280;26591;43.264;26.940;2023-08-20T00:39:51;99106.59;;;24.80;53.85
40872;BME280;26591;43.264;26.940;2023-08-20T00:42:16;99105.44;;;24.71;54.33
40872;BME280;26591;43.264;26.940;2023-08-20T00:44:42;99105.09;;;24.62;54.64
40872;BME280;26591;43.264;26.940;2023-08-20T00:47:10;99112.81;;;24.76;54.32
40872;BME280;26591;43.264;26.940;2023-08-20T00:49:36;99106.91;;;24.84;54.24
40872;BME280;26591;43.264;26.940;2023-08-20T00:52:03;99111.31;;;24.95;53.96
40872;BME280;26591;43.264;26.940;2023-08-20T00:54:29;99114.28;;;24.94;54.14
40872;BME280;26591;43.264;26.940;2023-08-20T00:56:56;99112.81;;;25.13;54.37
40872;BME280;26591;43.264;26.940;2023-08-20T00:59:22;99111.25;;;25.23;54.20
40872;BME280;26591;43.264;26.940;2023-08-20T01:01:48;99113.63;;;25.14;53.40
40872;BME280;26591;43.264;26.940;2023-08-20T01:04:13;99106.44;;;24.92;53.87
40872;BME280;26591;43.264;26.940;2023-08-20T01:07:05;99112.59;;;24.88;53.88
40872;BME280;26591;43.264;26.940;2023-08-20T01:12:34;99111.66;;;25.04;54.15
40872;BME280;26591;43.264;26.940;2023-08-20T01:14:59;99112.75;;;25.08;54.02
40872;BME280;26591;43.264;26.940;2023-08-20T01:17:25;99108.44;;;25.07;53.36
40872;BME280;26591;43.264;26.940;2023-08-20T01:19:50;99107.63;;;25.12;53.66
40872;BME280;26591;43.264;26.940;2023-08-20T01:28:22;99086.69;;;24.64;55.00
40872;BME280;26591;43.264;26.940;2023-08-20T01:30:48;99092.81;;;24.82;54.76
40872;BME280;26591;43.264;26.940;2023-08-20T01:33:14;99091.56;;;25.00;54.33
40872;BME280;26591;43.264;26.940;2023-08-20T01:35:40;99097.63;;;25.12;53.92
40872;BME280;26591;43.264;26.940;2023-08-20T01:38:06;99091.75;;;25.26;54.23
40872;BME280;26591;43.264;26.940;2023-08-20T01:40:33;99094.50;;;25.36;54.22
40872;BME280;26591;43.264;26.940;2023-08-20T01:42:58;99100.00;;;25.41;53.83
40872;BME280;26591;43.264;26.940;2023-08-20T01:45:24;99095.16;;;25.43;53.96
40872;BME280;26591;43.264;26.940;2023-08-20T01:47:50;99092.59;;;25.37;53.64
40872;BME280;26591;43.264;26.940;2023-08-20T01:50:16;99089.66;;;25.38;53.99
40872;BME280;26591;43.264;26.940;2023-08-20T01:52:43;99089.66;;;25.38;54.29
40872;BME280;26591;43.264;26.940;2023-08-20T01:55:10;99087.53;;;25.46;54.11
40872;BME280;26591;43.264;26.940;2023-08-20T01:57:36;99086.34;;;25.31;53.71
40872;BME280;26591;43.264;26.940;2023-08-20T02:00:03;99088.50;;;25.24;54.20
40872;BME280;26591;43.264;26.940;2023-08-20T02:02:33;99087.41;;;25.25;54.66
40872;BME280;26591;43.264;26.940;2023-08-20T02:04:59;99086.03;;;25.22;54.87
40872;BME280;26591;43.264;26.940;2023-08-20T02:07:25;99090.94;;;24.88;55.41
40872;BME280;26591;43.264;26.940;2023-08-20T02:09:50;99090.50;;;24.68;55.61
40872;BME280;26591;43.264;26.940;2023-08-20T02:12:16;99093.94;;;24.86;55.17
40872;BME280;26591;43.264;26.940;2023-08-20T02:14:41;99091.00;;;24.93;55.82
40872;BME280;26591;43.264;26.940;2023-08-20T02:17:09;99091.56;;;24.95;55.63
40872;BME280;26591;43.264;26.940;2023-08-20T02:19:35;99088.03;;;24.94;55.80
40872;BME280;26591;43.264;26.940;2023-08-20T02:22:01;99093.44;;;24.94;55.55
40872;BME280;26591;43.264;26.940;2023-08-20T02:24:26;99094.78;;;24.92;55.49
40872;BME280;26591;43.264;26.940;2023-08-20T02:26:52;99092.81;;;24.82;55.59
40872;BME280;26591;43.264;26.940;2023-08-20T02:29:18;99094.47;;;24.56;56.88
40872;BME280;26591;43.264;26.940;2023-08-20T02:31:44;99099.34;;;24.59;56.43
40872;BME280;26591;43.264;26.940;2023-08-20T02:34:09;99098.22;;;24.00;58.99
40872;BME280;26591;43.264;26.940;2023-08-20T02:36:35;99098.50;;;23.98;58.47
40872;BME280;26591;43.264;26.940;2023-08-20T02:39:00;99099.03;;;23.78;59.50
40872;BME280;26591;43.264;26.940;2023-08-20T02:41:26;99095.28;;;24.01;59.04
40872;BME280;26591;43.264;26.940;2023-08-20T02:43:51;99104.66;;;24.21;59.47
40872;BME280;26591;43.264;26.940;2023-08-20T02:46:17;99099.06;;;24.28;59.19
40872;BME280;26591;43.264;26.940;2023-08-20T02:48:42;99096.25;;;24.17;59.71
40872;BME280;26591;43.264;26.940;2023-08-20T02:51:08;99099.38;;;24.04;59.96
40872;BME280;26591;43.264;26.940;2023-08-20T02:53:33;99104.63;;;23.71;60.31
40872;BME280;26591;43.264;26.940;2023-08-20T02:55:59;99099.56;;;23.19;61.66
40872;BME280;26591;43.264;26.940;2023-08-20T02:58:24;99105.88;;;22.73;63.61
40872;BME280;26591;43.264;26.940;2023-08-20T03:00:50;99102.81;;;22.64;63.78
40872;BME280;26591;43.264;26.940;2023-08-20T03:03:15;99103.75;;;22.58;63.84
40872;BME280;26591;43.264;26.940;2023-08-20T03:05:41;99116.44;;;22.75;63.36
40872;BME280;26591;43.264;26.940;2023-08-20T03:08:07;99112.19;;;22.96;63.09
40872;BME280;26591;43.264;26.940;2023-08-20T03:10:33;99113.41;;;23.05;63.16
40872;BME280;26591;43.264;26.940;2023-08-20T03:13:00;99111.28;;;23.24;62.51
40872;BME280;26591;43.264;26.940;2023-08-20T03:15:26;99116.09;;;23.39;61.94
40872;BME280;26591;43.264;26.940;2023-08-20T03:17:52;99122.97;;;23.47;61.73
40872;BME280;26591;43.264;26.940;2023-08-20T03:20:17;99121.06;;;23.47;61.06
40872;BME280;26591;43.264;26.940;2023-08-20T03:22:43;99121.78;;;23.60;60.78
40872;BME280;26591;43.264;26.940;2023-08-20T03:25:08;99110.03;;;23.71;60.83
40872;BME280;26591;43.264;26.940;2023-08-20T03:27:34;99113.69;;;23.82;60.90
40872;BME280;26591;43.264;26.940;2023-08-20T03:30:00;99115.19;;;23.95;60.29
40872;BME280;26591;43.264;26.940;2023-08-20T03:32:25;99112.56;;;24.00;59.37
40872;BME280;26591;43.264;26.940;2023-08-20T03:34:51;99105.72;;;24.15;58.86
40872;BME280;26591;43.264;26.940;2023-08-20T03:37:18;99109.34;;;24.26;59.54
40872;BME280;26591;43.264;26.940;2023-08-20T03:39:44;99109.22;;;24.43;58.19
40872;BME280;26591;43.264;26.940;2023-08-20T03:42:10;99102.84;;;24.54;59.00
40872;BME280;26591;43.264;26.940;2023-08-20T03:44:36;99111.97;;;24.75;57.87
40872;BME280;26591;43.264;26.940;2023-08-20T03:47:04;99112.66;;;24.93;57.83
40872;BME280;26591;43.264;26.940;2023-08-20T03:49:30;99112.16;;;24.96;57.36
40872;BME280;26591;43.264;26.940;2023-08-20T03:51:56;99117.44;;;25.18;57.31
40872;BME280;26591;43.264;26.940;2023-08-20T03:54:23;99116.25;;;25.41;57.01
40872;BME280;26591;43.264;26.940;2023-08-20T03:56:48;99116.81;;;25.49;56.69
40872;BME280;26591;43.264;26.940;2023-08-20T03:59:16;99114.28;;;25.32;57.31
40872;BME280;26591;43.264;26.940;2023-08-20T04:01:42;99115.41;;;25.41;56.52
40872;BME280;26591;43.264;26.940;2023-08-20T04:04:07;99109.50;;;25.44;57.53
40872;BME280;26591;43.264;26.940;2023-08-20T04:06:33;99111.88;;;25.94;56.04
40872;BME280;26591;43.264;26.940;2023-08-20T04:08:59;99108.47;;;26.34;54.68
40872;BME280;26591;43.264;26.940;2023-08-20T04:11:27;99109.59;;;26.59;53.66
40872;BME280;26591;43.264;26.940;2023-08-20T04:13:53;99116.41;;;26.98;53.06
40872;BME280;26591;43.264;26.940;2023-08-20T04:16:20;99121.25;;;27.27;52.32
40872;BME280;26591;43.264;26.940;2023-08-20T04:18:45;99112.53;;;27.51;51.71
40872;BME280;26591;43.264;26.940;2023-08-20T04:21:11;99115.44;;;27.70;51.20
40872;BME280;26591;43.264;26.940;2023-08-20T04:23:36;99117.72;;;28.08;50.71
40872;BME280;26591;43.264;26.940;2023-08-20T04:26:02;99119.75;;;28.37;50.03
40872;BME280;26591;43.264;26.940;2023-08-20T04:28:27;99121.63;;;28.41;49.05
40872;BME280;26591;43.264;26.940;2023-08-20T04:30:54;99121.25;;;28.08;49.57
40872;BME280;26591;43.264;26.940;2023-08-20T04:33:19;99125.44;;;28.40;48.63
40872;BME280;26591;43.264;26.940;2023-08-20T04:35:45;99120.19;;;28.54;48.31
40872;BME280;26591;43.264;26.940;2023-08-20T04:38:10;99117.44;;;28.59;48.59
40872;BME280;26591;43.264;26.940;2023-08-20T04:40:36;99122.47;;;28.76;47.41
40872;BME280;26591;43.264;26.940;2023-08-20T04:43:02;99119.44;;;28.83;46.97
40872;BME280;26591;43.264;26.940;2023-08-20T04:45:27;99119.00;;;29.30;47.03
40872;BME280;26591;43.264;26.940;2023-08-20T04:47:53;99123.22;;;30.14;45.86
40872;BME280;26591;43.264;26.940;2023-08-20T04:50:18;99122.53;;;30.60;44.47
40872;BME280;26591;43.264;26.940;2023-08-20T04:52:44;99129.06;;;31.12;44.23
40872;BME280;26591;43.264;26.940;2023-08-20T04:55:09;99126.19;;;31.50;42.54
40872;BME280;26591;43.264;26.940;2023-08-20T04:57:35;99120.13;;;31.39;43.33
40872;BME280;26591;43.264;26.940;2023-08-20T05:00:00;99121.53;;;31.78;41.79
40872;BME280;26591;43.264;26.940;2023-08-20T05:02:26;99123.16;;;31.79;42.36
40872;BME280;26591;43.264;26.940;2023-08-20T05:04:52;99127.66;;;31.75;42.17
40872;BME280;26591;43.264;26.940;2023-08-20T05:07:17;99130.06;;;31.91;41.55
40872;BME280;26591;43.264;26.940;2023-08-20T05:09:43;99129.22;;;32.04;41.83
40872;BME280;26591;43.264;26.940;2023-08-20T05:12:09;99130.22;;;32.08;41.38
40872;BME280;26591;43.264;26.940;2023-08-20T05:14:34;99138.16;;;31.68;42.43
40872;BME280;26591;43.264;26.940;2023-08-20T05:17:00;99131.69;;;32.29;41.42
40872;BME280;26591;43.264;26.940;2023-08-20T05:19:26;99144.06;;;32.63;41.38
40872;BME280;26591;43.264;26.940;2023-08-20T05:21:52;99143.25;;;33.08;40.01
40872;BME280;26591;43.264;26.940;2023-08-20T05:24:21;99135.06;;;33.16;40.21
40872;BME280;26591;43.264;26.940;2023-08-20T05:26:49;99135.78;;;33.31;39.94
40872;BME280;26591;43.264;26.940;2023-08-20T05:29:15;99131.84;;;33.46;39.91
40872;BME280;26591;43.264;26.940;2023-08-20T05:31:40;99133.75;;;33.86;38.41
40872;BME280;26591;43.264;26.940;2023-08-20T05:34:06;99136.56;;;34.38;38.28
40872;BME280;26591;43.264;26.940;2023-08-20T05:36:31;99139.63;;;34.63;37.95
40872;BME280;26591;43.264;26.940;2023-08-20T05:38:57;99135.94;;;34.59;37.91
40872;BME280;26591;43.264;26.940;2023-08-20T05:41:22;99141.09;;;34.69;37.45
40872;BME280;26591;43.264;26.940;2023-08-20T05:43:48;99136.91;;;34.46;38.03
40872;BME280;26591;43.264;26.940;2023-08-20T05:46:13;99140.13;;;34.39;38.10
40872;BME280;26591;43.264;26.940;2023-08-20T05:48:39;99139.59;;;34.02;38.39
40872;BME280;26591;43.264;26.940;2023-08-20T05:51:04;99130.72;;;33.96;38.42
40872;BME280;26591;43.264;26.940;2023-08-20T05:53:30;99140.75;;;33.20;39.79
40872;BME280;26591;43.264;26.940;2023-08-20T05:55:55;99131.75;;;32.97;40.55
40872;BME280;26591;43.264;26.940;2023-08-20T05:58:21;99130.13;;;33.27;40.93
40872;BME280;26591;43.264;26.940;2023-08-20T06:00:46;99131.44;;;33.30;40.71
40872;BME280;26591;43.264;26.940;2023-08-20T06:03:12;99131.63;;;33.83;40.28
40872;BME280;26591;43.264;26.940;2023-08-20T06:05:37;99134.44;;;34.09;39.09
40872;BME280;26591;43.264;26.940;2023-08-20T06:08:03;99131.03;;;34.12;39.14
40872;BME280;26591;43.264;26.940;2023-08-20T06:10:29;99128.31;;;34.74;38.01
40872;BME280;26591;43.264;26.940;2023-08-20T06:12:55;99131.34;;;34.81;38.20
40872;BME280;26591;43.264;26.940;2023-08-20T06:15:22;99131.03;;;34.91;38.23
40872;BME280;26591;43.264;26.940;2023-08-20T06:17:47;99136.94;;;35.20;38.18
40872;BME280;26591;43.264;26.940;2023-08-20T06:20:13;99134.13;;;35.37;37.92
40872;BME280;26591;43.264;26.940;2023-08-20T06:22:38;99132.13;;;35.85;36.98
40872;BME280;26591;43.264;26.940;2023-08-20T06:25:05;99132.56;;;35.96;36.38
40872;BME280;26591;43.264;26.940;2023-08-20T06:27:31;99134.25;;;36.10;36.25
40872;BME280;26591;43.264;26.940;2023-08-20T06:29:56;99128.22;;;36.16;36.59
40872;BME280;26591;43.264;26.940;2023-08-20T06:32:23;99138.03;;;36.26;36.56
40872;BME280;26591;43.264;26.940;2023-08-20T06:34:48;99137.84;;;36.31;36.54
40872;BME280;26591;43.264;26.940;2023-08-20T06:37:14;99141.16;;;35.65;37.27
40872;BME280;26591;43.264;26.940;2023-08-20T06:39:39;99138.50;;;35.47;37.06
40872;BME280;26591;43.264;26.940;2023-08-20T06:42:05;99135.88;;;35.51;36.94
40872;BME280;26591;43.264;26.940;2023-08-20T06:44:31;99137.50;;;35.43;37.61
40872;BME280;26591;43.264;26.940;2023-08-20T06:46:56;99146.53;;;35.13;38.20
40872;BME280;26591;43.264;26.940;2023-08-20T06:49:22;99142.00;;;35.00;38.24
40872;BME280;26591;43.264;26.940;2023-08-20T06:51:47;99137.31;;;34.92;38.76
40872;BME280;26591;43.264;26.940;2023-08-20T06:54:14;99138.97;;;35.40;38.03
40872;BME280;26591;43.264;26.940;2023-08-20T06:56:41;99138.72;;;35.63;37.03
40872;BME280;26591;43.264;26.940;2023-08-20T06:59:06;99140.38;;;36.15;36.48
40872;BME280;26591;43.264;26.940;2023-08-20T07:01:32;99141.72;;;36.52;36.17
40872;BME280;26591;43.264;26.940;2023-08-20T07:03:58;99144.25;;;36.35;36.36
40872;BME280;26591;43.264;26.940;2023-08-20T07:06:23;99131.06;;;36.62;34.45
40872;BME280;26591;43.264;26.940;2023-08-20T07:08:49;99133.94;;;36.87;32.21
40872;BME280;26591;43.264;26.940;2023-08-20T07:11:15;99130.66;;;37.06;33.69
40872;BME280;26591;43.264;26.940;2023-08-20T07:13:41;99130.81;;;37.35;31.16
40872;BME280;26591;43.264;26.940;2023-08-20T07:16:06;99124.16;;;37.61;30.59
40872;BME280;26591;43.264;26.940;2023-08-20T07:18:32;99126.19;;;37.39;31.61
40872;BME280;26591;43.264;26.940;2023-08-20T07:20:57;99123.16;;;36.94;32.31
40872;BME280;26591;43.264;26.940;2023-08-20T07:23:23;99122.13;;;36.99;30.68
40872;BME280;26591;43.264;26.940;2023-08-20T07:25:48;99118.84;;;37.06;30.59
40872;BME280;26591;43.264;26.940;2023-08-20T07:28:17;99114.41;;;36.92;30.97
40872;BME280;26591;43.264;26.940;2023-08-20T07:30:52;99121.03;;;37.37;30.50
40872;BME280;26591;43.264;26.940;2023-08-20T07:33:17;99120.47;;;37.69;30.22
40872;BME280;26591;43.264;26.940;2023-08-20T07:35:43;99115.66;;;37.78;29.42
40872;BME280;26591;43.264;26.940;2023-08-20T07:38:08;99109.66;;;37.51;29.77
40872;BME280;26591;43.264;26.940;2023-08-20T07:40:34;99102.84;;;37.86;30.10
40872;BME280;26591;43.264;26.940;2023-08-20T07:42:59;99110.13;;;37.66;29.64
40872;BME280;26591;43.264;26.940;2023-08-20T07:45:25;99102.19;;;37.64;29.18
40872;BME280;26591;43.264;26.940;2023-08-20T07:47:50;99103.44;;;37.79;29.36
40872;BME280;26591;43.264;26.940;2023-08-20T07:50:16;99094.22;;;37.88;29.21
40872;BME280;26591;43.264;26.940;2023-08-20T07:52:41;99098.16;;;38.27;28.99
40872;BME280;26591;43.264;26.940;2023-08-20T07:55:07;99094.16;;;38.69;28.28
40872;BME280;26591;43.264;26.940;2023-08-20T07:57:33;99089.63;;;38.77;28.16
40872;BME280;26591;43.264;26.940;2023-08-20T07:59:58;99091.59;;;38.76;28.08
40872;BME280;26591;43.264;26.940;2023-08-20T08:02:24;99099.69;;;38.69;28.21
40872;BME280;26591;43.264;26.940;2023-08-20T08:04:49;99087.06;;;38.40;28.20
40872;BME280;26591;43.264;26.940;2023-08-20T08:07:15;99086.38;;;38.02;29.40
40872;BME280;26591;43.264;26.940;2023-08-20T08:09:40;99079.59;;;38.28;29.23
40872;BME280;26591;43.264;26.940;2023-08-20T08:12:06;99084.78;;;38.58;28.51
40872;BME280;26591;43.264;26.940;2023-08-20T08:14:31;99079.41;;;38.49;28.94
40872;BME280;26591;43.264;26.940;2023-08-20T08:16:57;99077.16;;;38.39;29.01
40872;BME280;26591;43.264;26.940;2023-08-20T08:19:22;99081.03;;;38.22;28.65
40872;BME280;26591;43.264;26.940;2023-08-20T08:21:48;99069.38;;;38.28;28.65
40872;BME280;26591;43.264;26.940;2023-08-20T08:24:14;99078.00;;;38.27;28.54
40872;BME280;26591;43.264;26.940;2023-08-20T08:26:40;99074.88;;;37.88;28.84
40872;BME280;26591;43.264;26.940;2023-08-20T08:29:06;99081.38;;;37.30;29.91
40872;BME280;26591;43.264;26.940;2023-08-20T08:31:33;99083.34;;;36.71;30.23
40872;BME280;26591;43.264;26.940;2023-08-20T08:33:58;99077.38;;;36.14;30.96
40872;BME280;26591;43.264;26.940;2023-08-20T08:36:24;99082.72;;;36.53;30.98
40872;BME280;26591;43.264;26.940;2023-08-20T08:38:53;99075.38;;;36.69;30.81
40872;BME280;26591;43.264;26.940;2023-08-20T08:41:22;99072.56;;;36.44;31.03
40872;BME280;26591;43.264;26.940;2023-08-20T08:43:51;99074.34;;;36.40;30.98
40872;BME280;26591;43.264;26.940;2023-08-20T08:46:17;99079.63;;;36.33;31.17
40872;BME280;26591;43.264;26.940;2023-08-20T08:48:44;99074.63;;;35.63;31.70
40872;BME280;26591;43.264;26.940;2023-08-20T08:51:14;99069.50;;;35.52;32.02
40872;BME280;26591;43.264;26.940;2023-08-20T08:53:42;99067.06;;;35.81;31.70
40872;BME280;26591;43.264;26.940;2023-08-20T08:56:11;99066.81;;;35.73;32.01
40872;BME280;26591;43.264;26.940;2023-08-20T08:58:36;99067.41;;;35.79;32.11
40872;BME280;26591;43.264;26.940;2023-08-20T09:01:02;99063.16;;;35.61;32.13
40872;BME280;26591;43.264;26.940;2023-08-20T09:03:27;99062.16;;;35.65;32.01
40872;BME280;26591;43.264;26.940;2023-08-20T09:05:58;99062.69;;;35.58;31.96
40872;BME280;26591;43.264;26.940;2023-08-20T09:08:31;99063.75;;;35.96;31.71
40872;BME280;26591;43.264;26.940;2023-08-20T09:11:01;99058.75;;;35.89;32.04
40872;BME280;26591;43.264;26.940;2023-08-20T09:13:41;99058.31;;;35.57;32.50
40872;BME280;26591;43.264;26.940;2023-08-20T09:16:07;99054.94;;;35.52;32.01
40872;BME280;26591;43.264;26.940;2023-08-20T09:18:46;99070.75;;;35.25;32.36
40872;BME280;26591;43.264;26.940;2023-08-20T09:21:13;99051.69;;;35.20;32.70
40872;BME280;26591;43.264;26.940;2023-08-20T09:23:39;99053.88;;;35.44;32.13
40872;BME280;26591;43.264;26.940;2023-08-20T09:26:06;99037.75;;;35.25;32.98
40872;BME280;26591;43.264;26.940;2023-08-20T09:28:42;99055.31;;;35.11;33.23
40872;BME280;26591;43.264;26.940;2023-08-20T09:31:08;99049.28;;;35.18;32.96
40872;BME280;26591;43.264;26.940;2023-08-20T09:33:33;99041.41;;;35.38;32.64
40872;BME280;26591;43.264;26.940;2023-08-20T09:35:59;99044.97;;;35.68;32.38
40872;BME280;26591;43.264;26.940;2023-08-20T09:38:25;99039.72;;;35.75;31.82
40872;BME280;26591;43.264;26.940;2023-08-20T09:40:52;99033.63;;;35.70;31.81
40872;BME280;26591;43.264;26.940;2023-08-20T09:43:18;99031.94;;;35.78;31.96
40872;BME280;26591;43.264;26.940;2023-08-20T09:45:46;99035.75;;;35.34;31.96
40872;BME280;26591;43.264;26.940;2023-08-20T09:48:14;99038.47;;;35.73;32.18
40872;BME280;26591;43.264;26.940;2023-08-20T09:50:43;99026.19;;;36.13;30.97
40872;BME280;26591;43.264;26.940;2023-08-20T09:53:26;99033.44;;;35.96;31.00
40872;BME280;26591;43.264;26.940;2023-08-20T09:55:52;99032.28;;;36.18;31.37
40872;BME280;26591;43.264;26.940;2023-08-20T09:58:21;99030.50;;;36.69;30.30
40872;BME280;26591;43.264;26.940;2023-08-20T10:00:51;99028.78;;;36.30;30.85
40872;BME280;26591;43.264;26.940;2023-08-20T10:03:18;99025.16;;;36.17;30.46
40872;BME280;26591;43.264;26.940;2023-08-20T10:05:46;99039.84;;;36.43;30.47
40872;BME280;26591;43.264;26.940;2023-08-20T10:08:14;99032.28;;;36.52;29.97
40872;BME280;26591;43.264;26.940;2023-08-20T10:10:40;99033.03;;;36.61;30.00
40872;BME280;26591;43.264;26.940;2023-08-20T10:13:06;99018.13;;;36.75;30.05
40872;BME280;26591;43.264;26.940;2023-08-20T10:15:31;99019.94;;;36.83;30.14
40872;BME280;26591;43.264;26.940;2023-08-20T10:18:00;99022.28;;;36.93;29.94
40872;BME280;26591;43.264;26.940;2023-08-20T10:20:28;99016.25;;;36.91;29.83
40872;BME280;26591;43.264;26.940;2023-08-20T10:23:00;99016.00;;;36.47;30.51
40872;BME280;26591;43.264;26.940;2023-08-20T10:25:26;99009.66;;;36.13;30.80
40872;BME280;26591;43.264;26.940;2023-08-20T10:27:53;99013.47;;;36.20;30.64
40872;BME280;26591;43.264;26.940;2023-08-20T10:30:27;99008.69;;;36.76;29.96
40872;BME280;26591;43.264;26.940;2023-08-20T10:32:55;99003.00;;;37.06;29.49
40872;BME280;26591;43.264;26.940;2023-08-20T10:35:27;99008.72;;;36.88;29.58
40872;BME280;26591;43.264;26.940;2023-08-20T10:40:56;99007.03;;;36.62;29.55
40872;BME280;26591;43.264;26.940;2023-08-20T10:43:28;98997.13;;;36.95;29.66
40872;BME280;26591;43.264;26.940;2023-08-20T10:46:03;98999.03;;;36.70;29.55
40872;BME280;26591;43.264;26.940;2023-08-20T10:48:31;99006.91;;;36.46;30.14
40872;BME280;26591;43.264;26.940;2023-08-20T10:50:57;98992.47;;;36.74;29.91
40872;BME280;26591;43.264;26.940;2023-08-20T10:53:24;98987.19;;;36.23;29.88
40872;BME280;26591;43.264;26.940;2023-08-20T10:55:49;98990.16;;;36.52;29.60
40872;BME280;26591;43.264;26.940;2023-08-20T10:58:15;99000.34;;;35.84;29.93
40872;BME280;26591;43.264;26.940;2023-08-20T11:00:41;98990.72;;;36.45;29.51
40872;BME280;26591;43.264;26.940;2023-08-20T11:03:08;98994.88;;;36.63;29.41
40872;BME280;26591;43.264;26.940;2023-08-20T11:05:34;98982.47;;;36.57;28.87
40872;BME280;26591;43.264;26.940;2023-08-20T11:07:59;98986.75;;;36.67;29.28
40872;BME280;26591;43.264;26.940;2023-08-20T11:10:26;98982.03;;;36.80;28.70
40872;BME280;26591;43.264;26.940;2023-08-20T11:12:51;98990.19;;;36.89;28.78
40872;BME280;26591;43.264;26.940;2023-08-20T11:15:17;98982.31;;;37.00;28.49
40872;BME280;26591;43.264;26.940;2023-08-20T11:17:45;98979.75;;;37.32;28.72
40872;BME280;26591;43.264;26.940;2023-08-20T11:20:13;98978.88;;;37.03;28.80
40872;BME280;26591;43.264;26.940;2023-08-20T11:22:40;98976.56;;;37.05;28.27
40872;BME280;26591;43.264;26.940;2023-08-20T11:25:10;98970.00;;;37.09;28.11
40872;BME280;26591;43.264;26.940;2023-08-20T11:27:36;98947.91;;;36.60;28.43
40872;BME280;26591;43.264;26.940;2023-08-20T11:30:03;98958.13;;;36.47;28.50
40872;BME280;26591;43.264;26.940;2023-08-20T11:32:30;98961.78;;;36.51;28.63
40872;BME280;26591;43.264;26.940;2023-08-20T11:34:56;98957.91;;;36.77;28.73
40872;BME280;26591;43.264;26.940;2023-08-20T11:37:29;98962.28;;;36.65;28.07
40872;BME280;26591;43.264;26.940;2023-08-20T11:39:55;98966.31;;;36.68;28.36
40872;BME280;26591;43.264;26.940;2023-08-20T11:42:20;98960.78;;;36.68;27.73
40872;BME280;26591;43.264;26.940;2023-08-20T11:44:47;98951.38;;;36.82;27.72
40872;BME280;26591;43.264;26.940;2023-08-20T11:47:18;98948.47;;;36.53;26.56
40872;BME280;26591;43.264;26.940;2023-08-20T11:49:44;98955.63;;;36.20;26.58
40872;BME280;26591;43.264;26.940;2023-08-20T11:52:11;98954.31;;;36.39;26.08
40872;BME280;26591;43.264;26.940;2023-08-20T11:54:38;98945.03;;;36.56;25.63
40872;BME280;26591;43.264;26.940;2023-08-20T11:57:05;98941.16;;;36.70;25.67
40872;BME280;26591;43.264;26.940;2023-08-20T11:59:32;98954.47;;;36.55;25.92
40872;BME280;26591;43.264;26.940;2023-08-20T12:02:00;98951.34;;;36.57;25.92
40872;BME280;26591;43.264;26.940;2023-08-20T12:04:29;98945.25;;;36.51;25.94
40872;BME280;26591;43.264;26.940;2023-08-20T12:09:32;98931.25;;;36.44;26.09
40872;BME280;26591;43.264;26.940;2023-08-20T12:11:58;98939.00;;;36.29;25.71
40872;BME280;26591;43.264;26.940;2023-08-20T12:14:24;98942.66;;;36.67;25.89
40872;BME280;26591;43.264;26.940;2023-08-20T12:16:50;98936.31;;;36.79;25.37
40872;BME280;26591;43.264;26.940;2023-08-20T12:19:16;98934.38;;;36.79;25.63
40872;BME280;26591;43.264;26.940;2023-08-20T12:21:42;98937.03;;;36.76;25.66
40872;BME280;26591;43.264;26.940;2023-08-20T12:24:09;98922.25;;;36.34;25.76
40872;BME280;26591;43.264;26.940;2023-08-20T12:26:36;98935.84;;;36.64;26.02
40872;BME280;26591;43.264;26.940;2023-08-20T12:29:02;98928.28;;;36.86;25.49
40872;BME280;26591;43.264;26.940;2023-08-20T12:31:27;98934.25;;;36.88;25.61
40872;BME280;26591;43.264;26.940;2023-08-20T12:33:53;98928.97;;;37.20;25.45
40872;BME280;26591;43.264;26.940;2023-08-20T12:36:18;98925.94;;;36.39;25.84
40872;BME280;26591;43.264;26.940;2023-08-20T12:38:44;98922.91;;;36.65;26.25
40872;BME280;26591;43.264;26.940;2023-08-20T12:41:10;98923.00;;;36.93;26.03
40872;BME280;26591;43.264;26.940;2023-08-20T12:43:40;98922.72;;;37.23;25.66
40872;BME280;26591;43.264;26.940;2023-08-20T12:46:06;98916.75;;;37.21;25.46
40872;BME280;26591;43.264;26.940;2023-08-20T12:48:31;98917.25;;;37.11;26.01
40872;BME280;26591;43.264;26.940;2023-08-20T12:50:58;98908.41;;;36.80;25.13
40872;BME280;26591;43.264;26.940;2023-08-20T12:53:24;98913.81;;;36.64;25.22
40872;BME280;26591;43.264;26.940;2023-08-20T12:55:49;98918.50;;;36.89;24.62
40872;BME280;26591;43.264;26.940;2023-08-20T12:58:15;98920.47;;;37.01;24.23
40872;BME280;26591;43.264;26.940;2023-08-20T13:00:40;98921.34;;;36.43;24.17